Main page
METAR-TAF:

METAR-TAF

Airports :

Salzburg Airport

Salzburg, Austria

latitude: 47-48N, longitude: 013-00E, elevation: 430 m

Current weather observation

The report was made 39 minutes ago, at 21:20 UTC
Wind 4 kt from the South/Southeast
Temperature 9°C
Humidity 100%
Pressure 1022 hPa
Visibility 10 km or more
Few clouds at a height of 23000 ft

METAR: LOWS 212120Z AUTO 16004KT 9999 FEW230 09/09 Q1022

Time: 23:59 (21:59 UTC)

Forecast

The report was made 4 hours and 44 minutes ago, at 17:15 UTC
Forecast valid from 21 at 18 UTC to 22 at 18 UTC
Wind 5 kt from the South/Southeast
Visibility 10 km or more
no clouds below 1500 m and no cumulonimbus
Probability 40% :
Temporary
from 22 at 00 UTC to 22 at 08 UTC
Wind 1 kt from variable directions
Visibility: 1200 m
Broken clouds at a height of 800 ft
patches of fog
Becoming
from 22 at 08 UTC to 22 at 10 UTC
Wind 5 kt from the North

TAF: LOWS 211715Z 2118/2218 15005KT CAVOK TX19/2213Z TN10/2201Z PROB40 TEMPO 2200/2208 VRB01KT 1200 BCFG BKN008 BECMG 2208/2210 01005KT

Weather observations and forecasts of more than 4000 airports (METAR and TAF reports).

The available stations are represented by yellow and red dots on the map.

Hover mouse over dot to see the name of the station.

Then click to see weather observations and forecasts.

To change the map : click on the green buttons with a black cross to zoom in, on the green button with a dash to zoom out, or on the green arrows for adjacent maps.


METAR-TAF: